Time,TemperatureF,DewpointF,PressureIn,WindDirection,WindDirectionDegrees,WindSpeedMPH,WindSpeedGustMPH,Humidity,HourlyPrecipIn,Conditions,Clouds,dailyrainin,SoftwareType,DateUTC
2013-02-04 00:02:00,38.0,31.0,29.78,SW,221,9.0,12.0,75,0.00,,,0.00,,2013-02-04 06:02:00,
2013-02-04 00:11:00,38.0,31.0,29.78,SW,221,9.0,12.0,75,0.00,,,0.00,,2013-02-04 06:11:00,
2013-02-04 00:21:00,38.0,31.0,29.77,SW,229,8.0,9.0,75,0.00,,,0.00,,2013-02-04 06:21:00,
2013-02-04 00:32:00,38.0,31.0,29.77,SW,227,8.0,11.0,76,0.00,,,0.00,,2013-02-04 06:32:00,
2013-02-04 00:41:00,38.0,31.0,29.77,SW,227,8.0,11.0,76,0.00,,,0.00,,2013-02-04 06:41:00,
2013-02-04 00:51:00,38.0,31.0,29.77,WSW,240,7.0,8.0,76,0.00,,,0.00,,2013-02-04 06:51:00,
2013-02-04 01:02:00,37.0,31.0,29.77,SW,235,6.0,8.0,78,0.00,,,0.00,,2013-02-04 07:02:00,
2013-02-04 01:11:00,37.0,31.0,29.77,WSW,243,6.0,7.0,78,0.00,,,0.00,,2013-02-04 07:11:00,
2013-02-04 01:21:00,37.0,31.0,29.77,WSW,243,6.0,7.0,78,0.00,,,0.00,,2013-02-04 07:21:00,
2013-02-04 01:32:00,37.0,31.0,29.77,WSW,256,5.0,7.0,79,0.00,,,0.00,,2013-02-04 07:32:00,
2013-02-04 01:41:00,37.0,31.0,29.77,WSW,256,5.0,7.0,79,0.00,,,0.00,,2013-02-04 07:41:00,
2013-02-04 01:52:00,37.0,31.0,29.77,WSW,256,8.0,10.0,78,0.00,,,0.00,,2013-02-04 07:52:00,
2013-02-04 02:01:00,37.0,31.0,29.77,WSW,254,8.0,10.0,78,0.00,,,0.00,,2013-02-04 08:01:00,
2013-02-04 02:11:00,37.0,31.0,29.77,WSW,254,8.0,10.0,78,0.00,,,0.00,,2013-02-04 08:11:00,
2013-02-04 02:21:00,37.0,31.0,29.77,WSW,258,9.0,10.0,78,0.00,,,0.00,,2013-02-04 08:21:00,
2013-02-04 02:31:00,37.0,31.0,29.78,West,266,7.0,10.0,80,0.00,,,0.00,,2013-02-04 08:31:00,
2013-02-04 02:42:00,37.0,31.0,29.78,West,266,7.0,10.0,80,0.00,,,0.00,,2013-02-04 08:42:00,
2013-02-04 02:52:00,37.0,31.0,29.78,WNW,288,6.0,8.0,80,0.00,,,0.00,,2013-02-04 08:52:00,
2013-02-04 03:02:00,38.0,31.0,29.79,NW,322,8.0,10.0,77,0.00,,,0.00,,2013-02-04 09:02:00,
2013-02-04 03:11:00,38.0,31.0,29.79,NNW,328,8.0,11.0,76,0.00,,,0.00,,2013-02-04 09:11:00,
2013-02-04 03:21:00,38.0,31.0,29.79,NNW,328,8.0,11.0,76,0.00,,,0.00,,2013-02-04 09:21:00,
2013-02-04 03:31:00,37.0,30.0,29.80,NNW,332,9.0,12.0,77,0.00,,,0.00,,2013-02-04 09:31:00,
2013-02-04 03:41:00,37.0,30.0,29.80,NNW,332,9.0,12.0,77,0.00,,,0.00,,2013-02-04 09:41:00,
2013-02-04 03:51:00,36.0,30.0,29.80,NNW,338,14.0,17.0,79,0.00,,,0.00,,2013-02-04 09:51:00,
2013-02-04 04:01:00,34.0,29.0,29.82,North,353,15.0,23.0,83,0.00,,,0.00,,2013-02-04 10:01:00,
2013-02-04 04:11:00,34.0,29.0,29.82,North,353,15.0,23.0,83,0.00,,,0.00,,2013-02-04 10:11:00,
2013-02-04 04:21:00,33.0,29.0,29.83,North,0,12.0,17.0,85,0.00,,,0.00,,2013-02-04 10:21:00,
2013-02-04 04:32:00,31.0,28.0,29.83,North,356,15.0,19.0,90,0.00,,,0.00,,2013-02-04 10:32:00,
2013-02-04 04:41:00,31.0,28.0,29.83,North,356,15.0,19.0,90,0.00,,,0.00,,2013-02-04 10:41:00,
2013-02-04 04:51:00,29.0,27.0,29.84,North,4,15.0,20.0,92,0.00,,,0.00,,2013-02-04 10:51:00,
2013-02-04 05:02:00,25.0,23.0,29.86,North,358,17.0,26.0,91,0.00,,,0.00,,2013-02-04 11:02:00,
2013-02-04 05:11:00,25.0,23.0,29.86,North,358,17.0,26.0,91,0.00,,,0.00,,2013-02-04 11:11:00,
2013-02-04 05:22:00,24.0,22.0,29.87,North,352,16.0,23.0,92,0.00,,,0.00,,2013-02-04 11:22:00,
2013-02-04 05:32:00,23.0,22.0,29.89,North,6,13.0,17.0,95,0.00,,,0.00,,2013-02-04 11:32:00,
2013-02-04 05:42:00,23.0,22.0,29.89,North,6,13.0,17.0,95,0.00,,,0.00,,2013-02-04 11:42:00,
2013-02-04 05:52:00,23.0,22.0,29.90,North,3,10.0,13.0,95,0.00,,,0.00,,2013-02-04 11:52:00,
2013-02-04 06:02:00,21.0,20.0,29.92,North,358,21.0,30.0,96,0.00,,,0.00,,2013-02-04 12:02:00,
2013-02-04 06:12:00,21.0,20.0,29.92,North,358,21.0,30.0,96,0.00,,,0.00,,2013-02-04 12:12:00,
2013-02-04 06:22:00,21.0,20.0,29.93,North,358,19.0,24.0,96,0.00,,,0.00,,2013-02-04 12:22:00,
2013-02-04 06:32:00,22.0,21.0,29.93,North,1,17.0,19.0,96,0.00,,,0.00,,2013-02-04 12:32:00,
2013-02-04 06:42:00,22.0,21.0,29.93,North,1,17.0,19.0,96,0.00,,,0.00,,2013-02-04 12:42:00,
2013-02-04 06:52:00,22.0,21.0,29.94,North,355,19.0,22.0,95,0.00,,,0.00,,2013-02-04 12:52:00,
2013-02-04 07:02:00,22.0,21.0,29.96,North,1,16.0,22.0,95,0.00,,,0.00,,2013-02-04 13:02:00,
2013-02-04 07:12:00,22.0,21.0,29.96,North,358,17.0,24.0,95,0.00,,,0.00,,2013-02-04 13:12:00,
2013-02-04 07:21:00,22.0,21.0,29.96,North,358,17.0,24.0,95,0.00,,,0.00,,2013-02-04 13:21:00,
2013-02-04 07:33:00,22.0,21.0,29.97,North,8,8.0,17.0,95,0.00,,,0.00,,2013-02-04 13:33:00,
2013-02-04 07:42:00,22.0,21.0,29.97,North,8,8.0,17.0,95,0.00,,,0.00,,2013-02-04 13:42:00,
2013-02-04 07:51:00,22.0,21.0,29.98,North,8,10.0,17.0,95,0.00,,,0.00,,2013-02-04 13:51:00,
2013-02-04 08:03:00,22.0,21.0,29.98,NNE,15,12.0,16.0,95,0.00,,,0.00,,2013-02-04 14:03:00,
2013-02-04 08:11:00,22.0,21.0,29.98,NNE,15,12.0,16.0,95,0.00,,,0.00,,2013-02-04 14:11:00,
2013-02-04 08:22:00,22.0,21.0,29.98,North,0,9.0,15.0,95,0.00,,,0.00,,2013-02-04 14:22:00,
2013-02-04 08:32:00,23.0,22.0,29.98,North,356,7.0,10.0,95,0.00,,,0.00,,2013-02-04 14:32:00,
2013-02-04 08:42:00,22.0,21.0,29.98,North,11,10.0,12.0,94,0.00,,,0.00,,2013-02-04 14:42:00,
2013-02-04 08:52:00,22.0,21.0,29.98,North,11,10.0,12.0,94,0.00,,,0.00,,2013-02-04 14:52:00,
2013-02-04 09:03:00,22.0,21.0,30.00,North,354,9.0,12.0,94,0.00,,,0.00,,2013-02-04 15:03:00,
2013-02-04 09:12:00,22.0,21.0,30.00,North,354,9.0,12.0,94,0.00,,,0.00,,2013-02-04 15:12:00,
2013-02-04 09:23:00,22.0,21.0,30.00,NNW,347,11.0,17.0,94,0.00,,,0.00,,2013-02-04 15:23:00,
2013-02-04 09:33:00,22.0,20.0,30.00,North,6,12.0,16.0,93,0.00,,,0.00,,2013-02-04 15:33:00,
2013-02-04 09:43:00,22.0,20.0,30.00,North,6,12.0,16.0,93,0.00,,,0.00,,2013-02-04 15:43:00,
2013-02-04 09:52:00,22.0,20.0,30.01,North,3,12.0,15.0,93,0.00,,,0.00,,2013-02-04 15:52:00,
2013-02-04 10:03:00,22.0,20.0,30.02,North,359,12.0,17.0,91,0.00,,,0.00,,2013-02-04 16:03:00,
2013-02-04 10:11:00,22.0,20.0,30.02,North,359,12.0,17.0,91,0.00,,,0.00,,2013-02-04 16:11:00,
2013-02-04 10:22:00,23.0,21.0,30.03,North,354,11.0,12.0,91,0.00,,,0.00,,2013-02-04 16:22:00,
2013-02-04 10:33:00,23.0,21.0,30.03,North,0,10.0,13.0,90,0.00,,,0.00,,2013-02-04 16:33:00,
2013-02-04 10:42:00,23.0,21.0,30.03,North,0,10.0,13.0,90,0.00,,,0.00,,2013-02-04 16:42:00,
2013-02-04 10:51:00,23.0,21.0,30.02,North,353,13.0,16.0,90,0.00,,,0.00,,2013-02-04 16:51:00,
2013-02-04 11:02:00,23.0,20.0,30.03,North,11,11.0,16.0,88,0.00,,,0.00,,2013-02-04 17:02:00,
2013-02-04 11:11:00,23.0,20.0,30.03,NNE,16,7.0,11.0,88,0.00,,,0.00,,2013-02-04 17:11:00,
2013-02-04 11:21:00,23.0,20.0,30.03,NNE,16,7.0,11.0,88,0.00,,,0.00,,2013-02-04 17:21:00,
2013-02-04 11:32:00,23.0,20.0,30.02,NNE,24,7.0,9.0,88,0.00,,,0.00,,2013-02-04 17:32:00,
2013-02-04 11:42:00,24.0,20.0,30.02,North,354,8.0,10.0,86,0.00,,,0.00,,2013-02-04 17:42:00,
2013-02-04 11:52:00,24.0,20.0,30.02,North,354,8.0,10.0,86,0.00,,,0.00,,2013-02-04 17:52:00,
2013-02-04 12:03:00,23.0,19.0,30.02,North,1,9.0,11.0,86,0.00,,,0.00,,2013-02-04 18:03:00,
2013-02-04 12:11:00,23.0,19.0,30.02,North,1,9.0,11.0,86,0.00,,,0.00,,2013-02-04 18:11:00,
2013-02-04 12:22:00,24.0,21.0,30.03,North,354,9.0,11.0,87,0.00,,,0.00,,2013-02-04 18:22:00,
2013-02-04 12:32:00,24.0,20.0,30.01,NNE,20,7.0,9.0,86,0.00,,,0.00,,2013-02-04 18:32:00,
2013-02-04 12:41:00,24.0,20.0,30.01,NNE,20,7.0,9.0,86,0.00,,,0.00,,2013-02-04 18:41:00,
2013-02-04 12:52:00,24.0,20.0,30.01,North,358,10.0,12.0,86,0.00,,,0.00,,2013-02-04 18:52:00,
2013-02-04 13:02:00,25.0,21.0,30.00,North,0,9.0,11.0,84,0.00,,,0.00,,2013-02-04 19:02:00,
2013-02-04 13:11:00,25.0,21.0,30.00,North,0,9.0,11.0,84,0.00,,,0.00,,2013-02-04 19:11:00,
2013-02-04 13:22:00,25.0,21.0,30.00,North,0,7.0,9.0,84,0.00,,,0.00,,2013-02-04 19:22:00,
2013-02-04 13:31:00,26.0,22.0,30.00,North,352,8.0,10.0,84,0.00,,,0.00,,2013-02-04 19:31:00,
2013-02-04 13:41:00,26.0,22.0,30.00,North,352,8.0,10.0,84,0.00,,,0.00,,2013-02-04 19:41:00,
2013-02-04 13:51:00,26.0,22.0,29.99,North,353,7.0,10.0,83,0.00,,,0.00,,2013-02-04 19:51:00,
2013-02-04 14:02:00,26.0,22.0,30.00,NNW,332,6.0,10.0,83,0.00,,,0.00,,2013-02-04 20:02:00,
2013-02-04 14:12:00,26.0,22.0,30.00,NNW,332,6.0,10.0,83,0.00,,,0.00,,2013-02-04 20:12:00,
2013-02-04 14:21:00,26.0,21.0,29.99,North,11,7.0,8.0,82,0.00,,,0.00,,2013-02-04 20:21:00,
2013-02-04 14:32:00,27.0,22.0,29.99,North,356,5.0,10.0,82,0.00,,,0.00,,2013-02-04 20:32:00,
2013-02-04 14:42:00,27.0,22.0,29.99,North,356,5.0,10.0,82,0.00,,,0.00,,2013-02-04 20:42:00,
2013-02-04 14:52:00,26.0,21.0,29.99,North,2,5.0,5.0,82,0.00,,,0.00,,2013-02-04 20:52:00,
2013-02-04 15:02:00,26.0,22.0,29.98,North,11,4.0,5.0,83,0.00,,,0.00,,2013-02-04 21:02:00,
2013-02-04 15:11:00,26.0,22.0,29.98,North,11,4.0,5.0,83,0.00,,,0.00,,2013-02-04 21:11:00,
2013-02-04 15:22:00,26.0,22.0,29.99,North,349,4.0,5.0,83,0.00,,,0.00,,2013-02-04 21:22:00,
2013-02-04 15:32:00,27.0,22.0,29.98,North,6,2.0,2.0,82,0.00,,,0.00,,2013-02-04 21:32:00,
2013-02-04 15:42:00,27.0,22.0,29.98,North,6,2.0,2.0,82,0.00,,,0.00,,2013-02-04 21:42:00,
2013-02-04 15:51:00,27.0,22.0,29.98,NNE,17,3.0,5.0,82,0.00,,,0.00,,2013-02-04 21:51:00,
2013-02-04 16:02:00,27.0,22.0,29.98,NNW,334,1.0,2.0,81,0.00,,,0.00,,2013-02-04 22:02:00,
2013-02-04 16:12:00,27.0,22.0,29.98,NNW,334,1.0,2.0,81,0.00,,,0.00,,2013-02-04 22:12:00,
2013-02-04 16:21:00,27.0,22.0,29.98,NNW,345,3.0,4.0,81,0.00,,,0.00,,2013-02-04 22:21:00,
2013-02-04 16:32:00,27.0,22.0,29.97,NNE,24,0.0,0.0,81,0.00,,,0.00,,2013-02-04 22:32:00,
2013-02-04 16:42:00,27.0,22.0,29.97,NNE,24,0.0,0.0,81,0.00,,,0.00,,2013-02-04 22:42:00,
2013-02-04 16:51:00,28.0,23.0,29.96,NNE,24,0.0,0.0,81,0.00,,,0.00,,2013-02-04 22:51:00,
2013-02-04 17:01:00,27.0,22.0,29.95,North,0,0.0,0.0,81,0.00,,,0.00,,2013-02-04 23:01:00,
2013-02-04 17:11:00,27.0,22.0,29.95,North,0,0.0,0.0,81,0.00,,,0.00,,2013-02-04 23:11:00,
2013-02-04 17:21:00,27.0,22.0,29.95,North,0,0.0,0.0,81,0.00,,,0.00,,2013-02-04 23:21:00,
2013-02-04 17:32:00,27.0,22.0,29.95,North,0,0.0,0.0,81,0.00,,,0.00,,2013-02-04 23:32:00,
2013-02-04 17:42:00,27.0,22.0,29.95,North,0,0.0,0.0,81,0.00,,,0.00,,2013-02-04 23:42:00,
2013-02-04 17:52:00,27.0,22.0,29.95,North,0,0.0,0.0,82,0.00,,,0.00,,2013-02-04 23:52:00,
2013-02-04 18:01:00,27.0,22.0,29.94,ESE,119,0.0,0.0,82,0.00,,,0.00,,2013-02-05 00:01:00,
2013-02-04 18:11:00,27.0,22.0,29.94,ESE,119,0.0,0.0,82,0.00,,,0.00,,2013-02-05 00:11:00,
2013-02-04 18:21:00,27.0,22.0,29.94,ESE,119,0.0,0.0,82,0.00,,,0.00,,2013-02-05 00:21:00,
2013-02-04 18:31:00,26.0,22.0,29.94,ESE,119,0.0,0.0,83,0.00,,,0.00,,2013-02-05 00:31:00,
2013-02-04 18:42:00,26.0,22.0,29.94,ESE,119,0.0,0.0,83,0.00,,,0.00,,2013-02-05 00:42:00,
2013-02-04 18:51:00,26.0,22.0,29.93,ESE,119,0.0,0.0,84,0.00,,,0.00,,2013-02-05 00:51:00,
2013-02-04 19:01:00,26.0,22.0,29.94,ESE,119,0.0,0.0,85,0.00,,,0.00,,2013-02-05 01:01:00,
2013-02-04 19:11:00,26.0,22.0,29.94,ESE,119,0.0,0.0,85,0.00,,,0.00,,2013-02-05 01:11:00,
2013-02-04 19:22:00,26.0,22.0,29.94,ESE,119,0.0,0.0,85,0.00,,,0.00,,2013-02-05 01:22:00,
2013-02-04 19:32:00,26.0,22.0,29.96,WSW,246,7.0,7.0,86,0.00,,,0.00,,2013-02-05 01:32:00,
2013-02-04 19:42:00,26.0,22.0,29.96,WSW,246,7.0,7.0,86,0.00,,,0.00,,2013-02-05 01:42:00,
2013-02-04 19:52:00,26.0,23.0,29.96,WSW,253,7.0,8.0,87,0.00,,,0.00,,2013-02-05 01:52:00,
2013-02-04 20:01:00,25.0,22.0,29.96,SW,236,6.0,7.0,87,0.00,,,0.00,,2013-02-05 02:01:00,
2013-02-04 20:11:00,25.0,22.0,29.96,SW,236,6.0,7.0,87,0.00,,,0.00,,2013-02-05 02:11:00,
2013-02-04 20:21:00,25.0,22.0,29.96,SW,225,5.0,9.0,88,0.00,,,0.00,,2013-02-05 02:21:00,
2013-02-04 20:32:00,25.0,22.0,29.94,SW,236,9.0,15.0,89,0.00,,,0.00,,2013-02-05 02:32:00,
2013-02-04 20:41:00,25.0,22.0,29.94,SW,236,9.0,15.0,89,0.00,,,0.00,,2013-02-05 02:41:00,
2013-02-04 20:52:00,25.0,22.0,29.93,SSW,213,7.0,11.0,89,0.00,,,0.00,,2013-02-05 02:52:00,
2013-02-04 21:02:00,25.0,22.0,29.92,SSW,202,9.0,12.0,90,0.00,,,0.00,,2013-02-05 03:02:00,
2013-02-04 21:11:00,25.0,22.0,29.92,SSW,202,9.0,12.0,90,0.00,,,0.00,,2013-02-05 03:11:00,
2013-02-04 21:21:00,25.0,22.0,29.92,SW,223,10.0,15.0,90,0.00,,,0.00,,2013-02-05 03:21:00,
2013-02-04 21:32:00,25.0,23.0,29.91,SW,229,10.0,14.0,91,0.00,,,0.00,,2013-02-05 03:32:00,
2013-02-04 21:42:00,25.0,23.0,29.91,SW,229,10.0,14.0,91,0.00,,,0.00,,2013-02-05 03:42:00,
2013-02-04 21:51:00,25.0,23.0,29.91,SSW,203,10.0,12.0,92,0.00,,,0.00,,2013-02-05 03:51:00,
2013-02-04 22:01:00,25.0,23.0,29.90,SW,222,9.0,13.0,92,0.00,,,0.00,,2013-02-05 04:01:00,
2013-02-04 22:11:00,25.0,23.0,29.90,SW,222,9.0,13.0,92,0.00,,,0.00,,2013-02-05 04:11:00,
2013-02-04 22:21:00,25.0,23.0,29.91,SW,228,9.0,14.0,92,0.00,,,0.00,,2013-02-05 04:21:00,
2013-02-04 22:32:00,25.0,23.0,29.90,SSW,210,10.0,13.0,93,0.00,,,0.00,,2013-02-05 04:32:00,
2013-02-04 22:42:00,25.0,23.0,29.90,SSW,210,10.0,13.0,93,0.00,,,0.00,,2013-02-05 04:42:00,
2013-02-04 22:52:00,25.0,23.0,29.90,SW,219,9.0,11.0,93,0.00,,,0.00,,2013-02-05 04:52:00,
2013-02-04 23:02:00,25.0,23.0,29.89,SSW,208,10.0,12.0,93,0.00,,,0.00,,2013-02-05 05:02:00,
2013-02-04 23:11:00,25.0,23.0,29.89,SSW,208,10.0,12.0,93,0.00,,,0.00,,2013-02-05 05:11:00,
2013-02-04 23:21:00,25.0,24.0,29.89,SSW,203,8.0,10.0,94,0.00,,,0.00,,2013-02-05 05:21:00,
2013-02-04 23:32:00,26.0,25.0,29.88,SW,223,9.0,12.0,94,0.00,,,0.00,,2013-02-05 05:32:00,
2013-02-04 23:42:00,26.0,25.0,29.88,SW,223,9.0,12.0,94,0.00,,,0.00,,2013-02-05 05:42:00,
2013-02-04 23:52:00,26.0,25.0,29.88,SW,224,8.0,10.0,94,0.00,,,0.00,,2013-02-05 05:52:00,